Time;durP1;ratioP1;P1;durP2;ratioP2;P2;SDS_P1;SDS_P2;PMS_P1;PMS_P2;Temp;Humidity;BMP_temperature;BMP_pressure;BME280_temperature;BME280_humidity;BME280_pressure;Samples;Min_cycle;Max_cycle;Signal;HPM_P1;HPM_P2
2024/03/13 00:01:14;;;;;;;10.00;5.82;;;;;;;6.74;83.32;98568.72;4920880;28;102814;-75
2024/03/13 00:03:43;;;;;;;11.55;5.53;;;;;;;6.77;83.39;98565.81;4918970;28;103100;-74
2024/03/13 00:06:11;;;;;;;10.90;6.18;;;;;;;6.66;82.96;98570.47;4913204;28;103377;-74
2024/03/13 00:08:41;;;;;;;9.93;5.38;;;;;;;6.65;83.14;98564.34;4915557;28;103028;-75
2024/03/13 00:11:09;;;;;;;10.52;5.65;;;;;;;6.66;84.04;98560.75;4918490;28;103707;-75
2024/03/13 00:13:37;;;;;;;11.27;5.22;;;;;;;6.59;83.84;98567.56;4901437;28;102933;-75
2024/03/13 00:16:07;;;;;;;11.00;5.38;;;;;;;6.58;83.61;98565.91;4918715;28;105184;-74
2024/03/13 00:18:37;;;;;;;9.77;5.57;;;;;;;6.52;83.30;98559.41;4917223;28;106044;-74
2024/03/13 00:21:05;;;;;;;9.50;5.40;;;;;;;6.50;83.52;98560.53;4918743;28;102783;-73
2024/03/13 00:23:34;;;;;;;11.80;5.40;;;;;;;6.44;83.70;98554.88;4897335;28;102899;-74
2024/03/13 00:26:04;;;;;;;8.52;5.40;;;;;;;6.42;83.70;98541.06;4919512;28;103428;-74
2024/03/13 00:28:33;;;;;;;8.85;4.60;;;;;;;6.47;83.05;98533.56;4922981;28;105572;-75
2024/03/13 00:31:01;;;;;;;7.47;3.70;;;;;;;6.29;83.67;98543.19;4922308;28;103073;-74
2024/03/13 00:33:29;;;;;;;8.10;4.10;;;;;;;6.31;83.63;98541.25;4897517;28;102926;-74
2024/03/13 00:35:58;;;;;;;7.47;3.85;;;;;;;6.38;83.41;98531.81;4919999;28;103483;-74
2024/03/13 00:38:26;;;;;;;6.88;3.28;;;;;;;6.35;83.93;98534.72;4920678;28;104950;-74
2024/03/13 00:40:55;;;;;;;6.43;3.55;;;;;;;6.44;83.05;98531.19;4920932;28;102893;-74
2024/03/13 00:43:24;;;;;;;7.65;3.58;;;;;;;6.47;83.14;98530.94;4923999;28;102725;-75
2024/03/13 00:45:53;;;;;;;9.55;4.00;;;;;;;6.51;83.02;98514.84;4923149;28;104137;-73
2024/03/13 00:48:21;;;;;;;4.47;2.63;;;;;;;6.42;82.91;98512.13;4925466;28;103469;-74
2024/03/13 00:50:49;;;;;;;5.38;2.50;;;;;;;6.37;82.95;98503.84;4926372;28;102741;-74
2024/03/13 00:53:17;;;;;;;6.47;2.95;;;;;;;6.38;83.51;98500.25;4919755;28;103009;-74
2024/03/13 00:55:46;;;;;;;5.20;2.10;;;;;;;6.30;83.55;98500.97;4924057;28;103484;-74
2024/03/13 00:58:14;;;;;;;4.05;2.05;;;;;;;6.43;82.88;98507.69;4918661;28;103934;-74
2024/03/13 01:00:48;;;;;;;4.75;2.35;;;;;;;6.34;83.58;98503.28;4924687;28;102761;-75
2024/03/13 01:03:22;;;;;;;5.35;2.67;;;;;;;6.29;83.66;98507.19;4923694;28;103062;-74
2024/03/13 01:05:50;;;;;;;3.63;2.22;;;;;;;6.24;82.79;98509.44;4919169;28;103232;-74
2024/03/13 01:08:18;;;;;;;4.18;2.28;;;;;;;6.41;83.07;98502.56;4921588;28;109736;-74
2024/03/13 01:10:50;;;;;;;4.53;2.45;;;;;;;6.49;83.26;98508.91;4922178;28;103467;-74
2024/03/13 01:13:19;;;;;;;4.60;2.40;;;;;;;6.30;83.55;98502.75;4909618;28;103621;-75
2024/03/13 01:15:49;;;;;;;4.28;2.05;;;;;;;6.36;83.91;98512.69;4900382;28;105509;-75
2024/03/13 01:18:18;;;;;;;4.22;2.22;;;;;;;6.43;83.73;98510.31;4915230;28;105482;-74
2024/03/13 01:20:48;;;;;;;4.32;2.10;;;;;;;6.51;83.24;98514.84;4924226;28;104159;-74
2024/03/13 01:23:16;;;;;;;5.25;1.85;;;;;;;6.47;83.50;98509.88;4910034;28;102827;-75
2024/03/13 01:25:47;;;;;;;3.45;1.50;;;;;;;6.55;83.57;98510.94;4922340;28;103407;-74
2024/03/13 01:28:15;;;;;;;3.97;1.50;;;;;;;6.57;82.81;98511.63;4903008;28;105662;-75
2024/03/13 01:30:44;;;;;;;3.53;1.80;;;;;;;6.47;82.88;98515.16;4926876;28;102760;-74
2024/03/13 01:33:13;;;;;;;3.90;1.90;;;;;;;6.39;83.94;98515.06;4904824;28;102830;-75
2024/03/13 01:35:42;;;;;;;4.57;1.90;;;;;;;6.39;84.34;98519.47;4901564;28;104512;-75
2024/03/13 01:38:09;;;;;;;5.15;1.67;;;;;;;6.35;84.10;98513.66;4921920;28;103449;-74
2024/03/13 01:54:53;;;;;;;6.70;1.73;;;;;;;6.32;83.86;98515.78;4916525;28;103057;-74
2024/03/13 01:57:31;;;;;;;1.67;1.20;;;;;;;6.47;83.60;98520.41;4922180;28;107940;-74
2024/03/13 02:02:49;;;;;;;5.35;1.60;;;;;;;6.43;83.84;98505.03;4916957;28;102804;-74
2024/03/13 02:05:19;;;;;;;3.63;1.50;;;;;;;6.37;83.74;98503.03;4923464;28;102762;-74
2024/03/13 02:07:48;;;;;;;3.78;2.17;;;;;;;6.44;83.70;98507.53;4919780;28;103237;-74
2024/03/13 02:10:17;;;;;;;3.38;1.40;;;;;;;6.53;83.33;98502.38;4917353;28;105097;-74
2024/03/13 02:13:06;;;;;;;4.00;1.23;;;;;;;6.52;83.68;98505.97;4920542;28;110430;-74
2024/03/13 02:15:35;;;;;;;4.40;1.63;;;;;;;6.51;83.50;98499.06;4923287;28;102801;-74
2024/03/13 02:18:14;;;;;;;5.68;1.30;;;;;;;6.55;83.68;98495.16;4900985;28;105743;-73
2024/03/13 02:20:44;;;;;;;2.40;1.25;;;;;;;6.62;83.34;98489.16;4921694;28;106111;-74
2024/03/13 02:23:13;;;;;;;3.47;1.27;;;;;;;6.62;82.99;98480.44;4916810;28;102718;-73
2024/03/13 02:25:41;;;;;;;3.00;1.33;;;;;;;6.61;83.45;98470.88;4903889;28;102741;-74
2024/03/13 02:28:10;;;;;;;2.10;1.20;;;;;;;6.54;83.53;98483.00;4901953;28;103349;-74
2024/03/13 02:30:38;;;;;;;2.03;1.17;;;;;;;6.43;82.25;98484.84;4907271;28;104162;-74
2024/03/13 02:33:06;;;;;;;4.57;1.15;;;;;;;6.30;83.35;98481.72;4897184;28;103092;-74
2024/03/13 02:35:34;;;;;;;4.97;1.10;;;;;;;6.35;84.03;98468.94;4894668;28;102763;-74
2024/03/13 02:38:02;;;;;;;2.00;1.13;;;;;;;6.42;84.02;98479.72;4903283;28;103526;-73
2024/03/13 02:40:33;;;;;;;2.90;1.27;;;;;;;6.46;83.67;98473.19;4885931;28;106018;-73
2024/03/13 02:43:01;;;;;;;3.10;1.10;;;;;;;6.54;83.51;98472.47;4892533;28;103730;-74
2024/03/13 02:45:29;;;;;;;2.72;1.00;;;;;;;6.46;83.81;98475.84;4909381;28;103030;-75
2024/03/13 02:47:58;;;;;;;2.05;1.00;;;;;;;6.49;83.60;98474.72;4900010;28;103880;-73
2024/03/13 02:50:26;;;;;;;2.92;1.00;;;;;;;6.47;84.01;98467.78;4893434;28;105198;-75
2024/03/13 02:52:54;;;;;;;1.83;1.02;;;;;;;6.47;83.85;98469.56;4882843;28;103050;-75
2024/03/13 02:55:23;;;;;;;1.83;0.90;;;;;;;6.51;83.89;98462.22;4894689;28;102678;-75
2024/03/13 02:57:51;;;;;;;2.45;1.10;;;;;;;6.47;84.03;98461.69;4892416;28;106079;-74
2024/03/13 03:00:19;;;;;;;5.07;1.33;;;;;;;6.47;83.84;98465.16;4908090;28;110025;-74
2024/03/13 03:02:48;;;;;;;2.22;1.20;;;;;;;6.38;83.59;98465.19;4903634;28;103280;-75
2024/03/13 03:05:18;;;;;;;5.07;1.30;;;;;;;6.43;84.23;98473.47;4906822;28;102751;-73
2024/03/13 03:07:46;;;;;;;4.03;1.52;;;;;;;6.39;83.81;98478.22;4892299;28;103157;-74
2024/03/13 03:10:15;;;;;;;2.67;1.20;;;;;;;6.52;83.53;98487.56;4893068;28;103265;-74
2024/03/13 03:12:43;;;;;;;2.83;1.40;;;;;;;6.36;83.94;98481.13;4885588;28;102753;-74
2024/03/13 03:15:12;;;;;;;6.38;1.50;;;;;;;6.23;84.18;98483.28;4910397;28;103047;-74
2024/03/13 03:17:40;;;;;;;3.30;1.20;;;;;;;6.07;84.03;98487.34;4888502;28;105309;-74
2024/03/13 03:20:08;;;;;;;3.97;1.30;;;;;;;6.08;84.30;98491.66;4881472;28;105065;-73
2024/03/13 03:22:37;;;;;;;2.05;1.38;;;;;;;6.17;84.17;98489.13;4889699;28;102992;-73
2024/03/13 03:25:05;;;;;;;2.45;1.30;;;;;;;6.09;84.56;98485.41;4886210;28;102684;-74
2024/03/13 03:27:34;;;;;;;2.75;1.20;;;;;;;6.02;84.61;98488.75;4903219;28;105880;-74
2024/03/13 03:30:03;;;;;;;2.00;1.08;;;;;;;6.07;84.01;98487.34;4876264;28;108201;-74
2024/03/13 03:32:31;;;;;;;2.22;0.93;;;;;;;6.12;84.02;98493.00;4888895;28;105366;-74
2024/03/13 03:34:59;;;;;;;4.05;1.38;;;;;;;6.07;84.29;98486.53;4891153;28;102795;-73
2024/03/13 03:37:28;;;;;;;8.52;1.30;;;;;;;5.91;84.99;98487.13;4905194;28;103321;-74
2024/03/13 03:39:56;;;;;;;2.65;1.30;;;;;;;5.88;84.96;98493.50;4887720;28;102650;-74
2024/03/13 03:42:25;;;;;;;3.50;1.55;;;;;;;5.96;84.37;98490.13;4908803;28;102917;-74
2024/03/13 03:44:54;;;;;;;3.22;1.27;;;;;;;5.94;84.43;98487.63;4906177;28;102928;-73
2024/03/13 03:47:22;;;;;;;6.35;1.15;;;;;;;5.92;84.69;98496.63;4912312;28;104245;-75
2024/03/13 03:49:51;;;;;;;2.00;1.25;;;;;;;5.88;85.13;98492.66;4884340;28;103190;-74
2024/03/13 03:52:19;;;;;;;2.15;1.20;;;;;;;6.02;83.97;98496.66;4886099;28;102849;-74
2024/03/13 03:54:47;;;;;;;2.60;1.35;;;;;;;5.89;84.68;98494.31;4886418;28;103190;-74
2024/03/13 03:57:16;;;;;;;4.93;1.50;;;;;;;5.78;84.72;98493.50;4885858;28;103541;-74
2024/03/13 03:59:44;;;;;;;3.40;1.35;;;;;;;5.78;84.87;98490.88;4892796;28;105030;-75
2024/03/13 04:02:16;;;;;;;4.10;1.48;;;;;;;5.74;85.12;98493.94;4865568;28;102894;-74
2024/03/13 04:04:44;;;;;;;3.85;1.33;;;;;;;5.75;84.68;98485.91;4887865;28;104044;-74
2024/03/13 04:07:12;;;;;;;3.60;1.30;;;;;;;5.83;85.03;98490.47;4902859;28;104041;-74
2024/03/13 04:09:40;;;;;;;4.53;1.52;;;;;;;5.94;84.08;98497.34;4868478;28;104753;-74
2024/03/13 04:12:08;;;;;;;4.40;1.58;;;;;;;5.75;84.01;98493.81;4887899;28;102779;-74
2024/03/13 04:14:37;;;;;;;2.53;1.17;;;;;;;5.74;84.21;98497.41;4886018;28;102774;-74
2024/03/13 04:17:05;;;;;;;2.80;1.52;;;;;;;5.63;84.62;98492.28;4909361;28;103430;-74
2024/03/13 04:19:33;;;;;;;2.88;1.40;;;;;;;5.75;84.86;98501.69;4884771;28;105729;-74
2024/03/13 04:22:01;;;;;;;2.10;1.17;;;;;;;5.77;84.71;98496.28;4902180;28;102729;-74
2024/03/13 04:24:30;;;;;;;2.78;1.30;;;;;;;5.83;84.19;98490.47;4886039;28;102867;-73
2024/03/13 04:26:58;;;;;;;3.22;1.20;;;;;;;5.83;84.05;98495.72;4907576;28;106227;-73
2024/03/13 04:29:26;;;;;;;3.97;1.50;;;;;;;5.68;84.38;98494.50;4903092;28;103427;-73
2024/03/13 04:32:08;;;;;;;3.25;1.20;;;;;;;5.64;85.03;98497.41;4911014;28;104164;-74
2024/03/13 04:34:37;;;;;;;4.65;1.08;;;;;;;5.77;84.30;98501.53;4905197;28;102886;-74
2024/03/13 04:37:05;;;;;;;2.00;0.98;;;;;;;5.78;83.77;98496.13;4888874;28;106494;-73
2024/03/13 04:39:33;;;;;;;2.05;1.10;;;;;;;5.81;83.61;98501.09;4890104;28;106630;-73
2024/03/13 04:42:01;;;;;;;2.67;1.00;;;;;;;5.75;84.17;98499.06;4905319;28;103140;-73
2024/03/13 04:44:29;;;;;;;3.17;1.00;;;;;;;5.75;84.42;98499.06;4905552;28;103158;-73
2024/03/13 04:46:57;;;;;;;4.53;1.23;;;;;;;5.71;84.26;98508.19;4890715;28;103317;-72
2024/03/13 04:49:25;;;;;;;1.70;1.10;;;;;;;5.73;84.52;98500.97;4899550;28;105352;-73
2024/03/13 04:51:55;;;;;;;2.35;0.90;;;;;;;5.70;84.38;98505.69;4900996;28;102837;-73
2024/03/13 04:54:23;;;;;;;4.22;1.40;;;;;;;5.78;83.63;98504.03;4893610;28;102882;-75
2024/03/13 04:56:51;;;;;;;1.77;0.98;;;;;;;5.80;83.69;98507.34;4902601;28;103313;-73
2024/03/13 04:59:19;;;;;;;2.92;1.20;;;;;;;5.76;83.73;98520.91;4900883;28;107967;-73
2024/03/13 05:01:49;;;;;;;2.90;1.30;;;;;;;5.72;83.87;98533.47;4897787;28;103207;-73
2024/03/13 05:04:18;;;;;;;2.08;1.25;;;;;;;5.74;83.63;98522.84;4898709;28;103042;-73
2024/03/13 05:06:47;;;;;;;2.17;1.00;;;;;;;5.84;83.53;98522.81;4898181;28;103189;-73
2024/03/13 05:09:15;;;;;;;2.10;1.10;;;;;;;5.76;83.96;98520.91;4867582;28;106008;-74
2024/03/13 05:11:43;;;;;;;1.73;0.90;;;;;;;5.83;83.70;98529.88;4903356;28;102775;-74
2024/03/13 05:14:11;;;;;;;1.92;1.10;;;;;;;5.77;83.63;98528.63;4901562;28;102816;-75
2024/03/13 05:16:41;;;;;;;3.15;1.35;;;;;;;5.70;83.63;98530.19;4887521;28;103307;-75
2024/03/13 05:19:10;;;;;;;3.00;1.38;;;;;;;5.86;84.23;98526.97;4895184;28;103470;-74
2024/03/13 05:21:38;;;;;;;2.47;1.33;;;;;;;5.82;83.60;98531.66;4894784;28;102751;-76
2024/03/13 05:24:06;;;;;;;4.93;1.08;;;;;;;5.86;83.55;98532.22;4898829;28;102780;-78
2024/03/13 05:26:35;;;;;;;3.75;1.20;;;;;;;5.89;83.51;98531.09;4898787;28;102796;-79
2024/03/13 05:29:04;;;;;;;1.67;1.00;;;;;;;5.88;83.81;98539.97;4896112;28;103345;-79
2024/03/13 05:31:31;;;;;;;1.85;0.90;;;;;;;5.98;82.94;98541.63;4898943;28;102718;-76
2024/03/13 05:34:00;;;;;;;2.63;0.98;;;;;;;5.99;83.24;98537.22;4908526;28;103409;-78
2024/03/13 05:36:28;;;;;;;5.07;1.85;;;;;;;5.94;83.75;98537.59;4897153;28;106017;-79
2024/03/13 05:38:56;;;;;;;4.25;1.52;;;;;;;6.05;83.04;98541.91;4905320;28;103366;-82
2024/03/13 05:41:24;;;;;;;3.63;1.58;;;;;;;5.95;83.68;98546.31;4892989;28;102851;-78
2024/03/13 05:43:52;;;;;;;3.42;1.20;;;;;;;6.06;83.09;98537.47;4908713;28;106352;-76
2024/03/13 05:46:21;;;;;;;1.80;1.10;;;;;;;6.03;83.43;98537.75;4877922;28;109108;-75
2024/03/13 05:48:49;;;;;;;3.13;1.52;;;;;;;5.98;83.00;98543.44;4890337;28;103198;-74
2024/03/13 05:51:18;;;;;;;5.93;1.92;;;;;;;5.96;84.07;98553.22;4903251;28;103065;-75
2024/03/13 05:53:46;;;;;;;5.90;2.58;;;;;;;6.00;83.79;98552.00;4888637;28;102673;-75
2024/03/13 05:56:14;;;;;;;5.15;1.80;;;;;;;6.05;83.81;98552.41;4884118;28;106097;-79
2024/03/13 05:58:42;;;;;;;6.55;1.90;;;;;;;6.12;83.13;98555.31;4883165;28;103346;-75
2024/03/13 06:01:13;;;;;;;4.50;1.48;;;;;;;6.19;83.21;98552.91;4887738;28;102814;-77
2024/03/13 06:03:41;;;;;;;7.18;2.83;;;;;;;6.25;83.62;98552.31;4909782;28;102950;-77
2024/03/13 06:06:11;;;;;;;6.97;2.95;;;;;;;6.18;83.34;98546.00;4920009;28;103679;-70
2024/03/13 06:08:39;;;;;;;7.63;2.33;;;;;;;6.14;83.17;98556.81;4899340;28;105388;-71
2024/03/13 06:11:07;;;;;;;8.88;2.45;;;;;;;6.16;83.11;98558.44;4886872;28;102764;-71
2024/03/13 06:13:36;;;;;;;9.40;4.63;;;;;;;6.08;84.12;98557.38;4878186;28;102898;-83
2024/03/13 06:16:06;;;;;;;4.13;2.15;;;;;;;6.14;83.83;98555.97;4904638;28;103445;-79
2024/03/13 06:18:46;;;;;;;3.83;1.83;;;;;;;6.28;83.27;98568.66;4882851;28;104205;-81
2024/03/13 06:21:15;;;;;;;6.50;1.92;;;;;;;6.41;83.04;98568.34;4883736;28;102758;-82
2024/03/13 06:23:48;;;;;;;2.58;1.38;;;;;;;6.35;83.17;98563.66;4906012;28;102911;-83
2024/03/13 06:26:18;;;;;;;5.30;1.92;;;;;;;6.44;83.53;98568.03;4876304;28;105592;-82
2024/03/13 06:31:30;;;;;;;7.38;2.08;;;;;;;6.32;83.71;98569.22;4882988;28;104062;-81
2024/03/13 06:34:01;;;;;;;4.30;1.60;;;;;;;6.37;83.21;98577.50;4905219;28;102758;-80
2024/03/13 06:36:29;;;;;;;4.38;1.80;;;;;;;6.42;83.27;98572.63;4894869;28;103405;-80
2024/03/13 06:38:57;;;;;;;3.28;1.70;;;;;;;6.38;83.14;98578.31;4901785;28;103473;-79
2024/03/13 06:41:25;;;;;;;5.35;2.28;;;;;;;6.46;83.78;98579.25;4883593;28;103139;-79
2024/03/13 06:43:53;;;;;;;3.50;1.70;;;;;;;6.47;83.31;98578.28;4884453;28;102977;-77
2024/03/13 06:46:21;;;;;;;4.10;1.80;;;;;;;6.54;83.10;98582.97;4873305;28;105448;-80
2024/03/13 06:48:49;;;;;;;6.10;2.08;;;;;;;6.40;83.85;98579.81;4893595;28;103575;-79
2024/03/13 06:51:17;;;;;;;4.93;1.40;;;;;;;6.43;84.21;98582.19;4895292;28;106519;-80
2024/03/13 06:53:45;;;;;;;3.67;1.95;;;;;;;6.41;84.40;98581.50;4892891;28;102617;-80
2024/03/13 06:56:13;;;;;;;3.28;1.90;;;;;;;6.49;84.14;98580.78;4907840;28;102849;-79
2024/03/13 06:58:41;;;;;;;3.55;2.00;;;;;;;6.51;84.34;98580.63;4893587;28;104876;-79
2024/03/13 07:01:12;;;;;;;4.03;2.08;;;;;;;6.49;83.88;98582.59;4892618;28;102807;-76
2024/03/13 07:03:41;;;;;;;3.50;1.88;;;;;;;6.68;83.79;98584.28;4908202;28;102627;-77
2024/03/13 07:06:10;;;;;;;4.20;1.90;;;;;;;6.68;84.01;98585.13;4883364;28;104670;-76
2024/03/13 07:08:40;;;;;;;4.38;2.20;;;;;;;6.84;83.35;98581.84;4906157;28;103559;-78
2024/03/13 07:11:22;;;;;;;4.38;2.00;;;;;;;6.96;83.09;98585.13;4910711;28;102905;-79
2024/03/13 07:14:04;;;;;;;4.10;1.85;;;;;;;7.11;82.82;98588.91;4875782;28;102862;-75
2024/03/13 07:17:02;;;;;;;5.18;2.50;;;;;;;7.16;82.34;98592.91;4893428;28;103719;-77
2024/03/13 07:19:33;;;;;;;3.30;2.22;;;;;;;7.10;82.85;98584.59;4868090;28;110004;-76
2024/03/13 07:22:01;;;;;;;5.05;2.50;;;;;;;6.96;81.84;98582.47;4884767;28;103111;-75
2024/03/13 07:24:29;;;;;;;4.72;2.53;;;;;;;6.86;83.10;98582.53;4891120;28;102838;-76
2024/03/13 07:26:58;;;;;;;5.20;2.60;;;;;;;6.96;83.20;98587.75;4885576;28;103799;-77
2024/03/13 07:29:27;;;;;;;4.50;2.28;;;;;;;7.14;82.78;98593.88;4906512;28;103558;-77
2024/03/13 07:31:56;;;;;;;3.28;1.90;;;;;;;7.39;82.24;98604.66;4884912;28;103023;-76
2024/03/13 07:34:24;;;;;;;3.95;2.35;;;;;;;7.16;82.50;98598.16;4899876;28;103177;-76
2024/03/13 07:36:52;;;;;;;6.60;2.75;;;;;;;7.30;83.00;98600.28;4879237;28;103217;-75
2024/03/13 07:39:25;;;;;;;3.72;2.03;;;;;;;7.36;82.23;98599.66;4893574;28;103749;-74
2024/03/13 07:41:56;;;;;;;6.88;2.38;;;;;;;7.25;82.19;98602.53;4879742;28;104305;-74
2024/03/13 07:44:24;;;;;;;4.25;2.45;;;;;;;7.21;82.15;98606.44;4886112;28;103192;-74
2024/03/13 07:46:52;;;;;;;5.30;2.50;;;;;;;7.21;82.32;98602.00;4894830;28;104330;-71
2024/03/13 07:49:20;;;;;;;3.72;2.53;;;;;;;7.20;82.42;98607.41;4897914;28;103245;-74
2024/03/13 07:51:48;;;;;;;3.20;2.10;;;;;;;7.31;82.87;98607.22;4899811;28;102782;-74
2024/03/13 07:54:16;;;;;;;6.07;2.50;;;;;;;7.36;82.28;98615.47;4868063;28;102769;-74
2024/03/13 07:59:40;;;;;;;3.67;2.42;;;;;;;7.35;82.14;98613.84;4907070;28;106249;-75
2024/03/13 08:02:08;;;;;;;4.13;2.50;;;;;;;7.37;82.04;98621.59;4879303;28;102882;-74
2024/03/13 08:04:37;;;;;;;4.45;2.55;;;;;;;7.29;82.52;98619.69;4897141;28;102923;-75
2024/03/13 08:07:05;;;;;;;3.70;2.33;;;;;;;7.41;82.86;98621.13;4885361;28;103525;-75
2024/03/13 08:09:50;;;;;;;3.15;2.13;;;;;;;7.58;82.10;98618.66;4889236;28;102766;-75
2024/03/13 08:12:35;;;;;;;;;;;;;;;7.56;82.45;98620.59;4884328;28;106327;-73
2024/03/13 08:15:21;;;;;;;4.93;2.33;;;;;;;7.69;82.17;98626.34;4894245;28;105568;-74
2024/03/13 08:18:09;;;;;;;5.15;2.60;;;;;;;7.62;81.95;98622.66;4884557;28;104074;-75
2024/03/13 08:20:56;;;;;;;5.90;2.90;;;;;;;7.77;82.06;98622.94;4886934;28;103347;-75
2024/03/13 08:27:56;;;;;;;4.50;3.10;;;;;;;7.91;82.54;98624.19;4878656;28;103970;-75
2024/03/13 08:30:42;;;;;;;5.80;2.55;;;;;;;8.06;82.17;98627.13;4889164;28;105517;-75
2024/03/13 08:33:29;;;;;;;10.05;2.85;;;;;;;8.03;82.50;98636.19;4900145;28;108227;-75
2024/03/13 08:36:14;;;;;;;6.43;3.40;;;;;;;8.16;82.67;98637.56;4894492;28;103039;-75
2024/03/13 08:38:59;;;;;;;5.43;2.88;;;;;;;8.39;81.68;98640.53;4882657;28;102804;-74
2024/03/13 08:41:45;;;;;;;5.03;2.95;;;;;;;8.43;81.57;98633.97;4898730;28;103405;-76
2024/03/13 08:44:30;;;;;;;4.47;3.30;;;;;;;8.50;81.93;98647.41;4877397;28;110220;-75
2024/03/13 08:47:18;;;;;;;5.35;3.00;;;;;;;8.68;80.92;98642.06;4881140;28;103799;-75
2024/03/13 08:50:04;;;;;;;7.25;3.00;;;;;;;8.69;81.71;98643.72;4875550;28;102838;-75
2024/03/13 08:52:50;;;;;;;5.85;2.85;;;;;;;8.78;81.74;98648.88;4881727;28;103252;-75
2024/03/13 08:55:36;;;;;;;4.65;2.70;;;;;;;8.71;81.67;98650.50;4897131;28;109066;-75
2024/03/13 08:58:21;;;;;;;4.55;2.70;;;;;;;8.79;81.57;98650.53;4884538;28;104018;-75
2024/03/13 09:01:07;;;;;;;4.70;2.50;;;;;;;8.98;81.98;98659.19;4900805;28;102856;-75
2024/03/13 09:03:53;;;;;;;5.05;3.38;;;;;;;9.08;81.35;98665.19;4887484;28;106208;-73
2024/03/13 09:06:38;;;;;;;;;;;;;;;9.07;81.28;98665.34;4890147;28;104596;-75
2024/03/13 09:09:06;;;;;;;5.88;3.08;;;;;;;9.07;81.42;98658.22;4917449;28;102784;-75
2024/03/13 09:11:36;;;;;;;5.78;3.40;;;;;;;9.01;81.23;98663.34;4885156;28;102897;-75
2024/03/13 09:14:07;;;;;;;5.80;2.90;;;;;;;8.91;81.63;98664.28;4888960;28;103337;-75
2024/03/13 09:16:36;;;;;;;6.78;4.07;;;;;;;9.11;81.44;98664.84;4885913;28;103849;-75
2024/03/13 09:19:04;;;;;;;6.22;3.38;;;;;;;9.20;81.68;98664.91;4880764;28;103111;-75
2024/03/13 09:21:33;;;;;;;4.55;2.92;;;;;;;9.34;81.04;98674.84;4870055;28;102708;-75
2024/03/13 09:24:02;;;;;;;6.95;3.90;;;;;;;9.11;81.83;98675.41;4874613;28;104062;-75
2024/03/13 09:26:34;;;;;;;6.22;3.15;;;;;;;9.12;81.69;98676.25;4876072;28;103187;-75
2024/03/13 09:29:04;;;;;;;5.47;3.20;;;;;;;9.33;82.02;98673.19;4902780;28;102956;-75
2024/03/13 09:31:33;;;;;;;11.30;3.67;;;;;;;9.38;81.58;98676.19;4897415;28;102817;-74
2024/03/13 09:34:01;;;;;;;5.60;3.28;;;;;;;9.41;81.49;98673.22;4882358;28;103899;-75
2024/03/13 09:36:29;;;;;;;6.53;4.00;;;;;;;9.34;81.80;98677.50;4898648;28;103230;-75
2024/03/13 09:38:59;;;;;;;6.97;3.72;;;;;;;9.55;81.49;98670.91;4874992;28;102967;-74
2024/03/13 09:41:27;;;;;;;9.82;4.10;;;;;;;9.48;82.27;98677.84;4882013;28;105952;-75
2024/03/13 09:43:55;;;;;;;8.07;3.95;;;;;;;9.54;81.58;98679.88;4897020;28;103390;-75
2024/03/13 09:46:23;;;;;;;5.25;3.63;;;;;;;9.68;81.54;98676.59;4903412;28;103230;-74
2024/03/13 09:48:51;;;;;;;6.22;3.67;;;;;;;9.60;81.88;98681.84;4883021;28;103940;-75
2024/03/13 09:51:21;;;;;;;5.45;3.65;;;;;;;9.76;81.51;98684.53;4863364;28;106118;-75
2024/03/13 09:53:49;;;;;;;6.60;3.90;;;;;;;9.61;81.42;98678.22;4875895;28;104072;-74
2024/03/13 09:56:19;;;;;;;8.15;4.32;;;;;;;9.60;81.57;98684.47;4897347;28;108002;-75
2024/03/13 09:58:49;;;;;;;6.05;3.85;;;;;;;9.75;81.52;98682.88;4882883;28;102777;-75
2024/03/13 10:01:21;;;;;;;8.70;5.30;;;;;;;9.66;81.40;98686.50;4882874;28;106434;-74
2024/03/13 10:03:50;;;;;;;8.20;4.85;;;;;;;9.77;81.33;98683.53;4875331;28;107367;-74
2024/03/13 10:06:24;;;;;;;5.80;3.63;;;;;;;9.91;81.29;98691.81;4885227;28;109516;-75
2024/03/13 10:08:53;;;;;;;10.20;5.07;;;;;;;9.73;81.82;98690.16;4902851;28;102704;-74
2024/03/13 10:11:21;;;;;;;12.30;4.97;;;;;;;9.70;81.53;98693.09;4896697;28;102731;-75
2024/03/13 10:13:50;;;;;;;8.40;4.10;;;;;;;9.91;81.49;98697.09;4880930;28;105857;-75
2024/03/13 10:16:18;;;;;;;7.65;3.72;;;;;;;9.89;81.71;98696.44;4883583;28;110766;-74
2024/03/13 10:18:47;;;;;;;6.95;3.05;;;;;;;10.01;81.13;98696.94;4882176;28;102828;-75
2024/03/13 10:21:16;;;;;;;5.90;3.80;;;;;;;10.01;80.99;98692.50;4882941;28;103177;-75
2024/03/13 10:23:44;;;;;;;5.43;3.10;;;;;;;10.21;80.88;98697.47;4894207;28;103440;-75
2024/03/13 10:26:13;;;;;;;6.95;3.85;;;;;;;10.02;80.57;98695.94;4880243;28;105790;-75
2024/03/13 10:28:41;;;;;;;13.35;3.97;;;;;;;9.65;82.58;98694.59;4871047;28;104109;-74
2024/03/13 10:31:09;;;;;;;7.60;4.22;;;;;;;9.74;82.97;98697.06;4882576;28;104046;-74
2024/03/13 10:33:39;;;;;;;7.85;4.28;;;;;;;9.67;82.59;98704.03;4866767;28;102780;-74
2024/03/13 10:36:13;;;;;;;9.35;4.47;;;;;;;9.44;84.14;98699.31;4886606;28;103485;-74
2024/03/13 10:38:43;;;;;;;9.50;4.30;;;;;;;9.51;83.23;98696.88;4884335;28;102992;-74
2024/03/13 10:41:12;;;;;;;7.82;4.60;;;;;;;9.59;83.63;98698.72;4877222;28;102855;-75
2024/03/13 10:43:42;;;;;;;7.78;3.58;;;;;;;9.88;83.70;98697.44;4895335;28;103373;-75
2024/03/13 10:46:12;;;;;;;7.72;4.30;;;;;;;10.15;82.58;98698.94;4895916;28;103883;-75
2024/03/13 10:48:40;;;;;;;5.82;3.38;;;;;;;10.25;82.29;98696.94;4866605;28;102844;-74
2024/03/13 10:51:11;;;;;;;5.95;3.30;;;;;;;10.17;82.69;98693.50;4883141;28;103009;-74
2024/03/13 10:53:40;;;;;;;10.25;3.60;;;;;;;10.22;82.53;98699.13;4879484;28;103720;-75
2024/03/13 10:56:13;;;;;;;7.38;3.97;;;;;;;10.07;82.58;98699.78;4889123;28;106846;-74
2024/03/13 10:58:41;;;;;;;7.90;4.10;;;;;;;9.81;83.58;98701.72;4885060;28;103260;-75
2024/03/13 11:01:13;;;;;;;5.60;3.40;;;;;;;10.05;83.96;98696.47;4882395;28;103275;-74
2024/03/13 11:03:41;;;;;;;16.08;4.60;;;;;;;10.18;83.14;98693.31;4897043;28;104386;-75
2024/03/13 11:06:11;;;;;;;8.15;3.67;;;;;;;10.27;83.33;98699.41;4883820;28;103343;-76
2024/03/13 11:08:49;;;;;;;4.60;2.58;;;;;;;10.46;82.87;98700.94;4900421;28;102894;-74
2024/03/13 11:11:17;;;;;;;6.63;3.13;;;;;;;10.57;82.30;98694.47;4884648;28;103139;-75
2024/03/13 11:13:53;;;;;;;6.60;3.40;;;;;;;10.50;82.63;98704.09;4882651;28;103492;-75
2024/03/13 11:16:21;;;;;;;6.22;2.85;;;;;;;10.63;82.16;98693.78;4894103;28;106285;-74
2024/03/13 11:18:49;;;;;;;5.55;3.10;;;;;;;10.56;81.36;98700.78;4889810;28;103790;-74
2024/03/13 11:21:17;;;;;;;7.03;3.40;;;;;;;10.56;81.51;98700.78;4881290;28;103833;-74
2024/03/13 11:23:45;;;;;;;6.63;3.38;;;;;;;10.63;81.57;98696.44;4895517;28;104382;-74
2024/03/13 11:26:14;;;;;;;5.18;3.00;;;;;;;10.74;81.55;98696.09;4875185;28;105449;-75
2024/03/13 11:28:45;;;;;;;6.65;3.20;;;;;;;10.59;81.31;98695.13;4876261;28;103286;-73
2024/03/13 11:31:13;;;;;;;4.88;3.10;;;;;;;10.85;81.74;98704.69;4896653;28;104771;-74
2024/03/13 11:33:42;;;;;;;6.32;2.80;;;;;;;10.92;81.09;98700.34;4894657;28;105447;-75
2024/03/13 11:36:10;;;;;;;7.45;3.13;;;;;;;10.97;81.73;98697.19;4880979;28;104080;-74
2024/03/13 11:38:38;;;;;;;6.55;3.33;;;;;;;10.99;81.55;98701.34;4864959;28;106199;-74
2024/03/13 11:41:07;;;;;;;5.95;2.80;;;;;;;11.12;80.96;98700.78;4895343;28;103072;-74
2024/03/13 11:43:35;;;;;;;6.03;2.92;;;;;;;11.17;80.57;98702.91;4885713;28;103254;-74
2024/03/13 11:46:04;;;;;;;7.38;2.83;;;;;;;11.23;80.94;98696.94;4877431;28;103395;-74
2024/03/13 11:48:32;;;;;;;6.13;2.85;;;;;;;11.23;81.02;98700.41;4893015;28;102709;-74
2024/03/13 11:51:07;;;;;;;6.85;3.00;;;;;;;11.38;80.88;98691.72;4893763;28;102716;-75
2024/03/13 11:53:36;;;;;;;7.50;3.10;;;;;;;11.38;79.96;98689.06;4877655;28;106061;-75
2024/03/13 11:56:05;;;;;;;5.30;3.05;;;;;;;11.35;80.35;98684.94;4897270;28;102906;-75
2024/03/13 11:58:34;;;;;;;6.60;3.45;;;;;;;11.36;80.42;98688.44;4882216;28;102849;-74
2024/03/13 12:01:03;;;;;;;4.10;2.90;;;;;;;11.31;80.92;98682.81;4883947;28;102826;-75
2024/03/13 12:03:39;;;;;;;6.20;3.10;;;;;;;10.70;82.61;98678.91;4893454;28;106269;-74
2024/03/13 12:06:10;;;;;;;6.75;3.38;;;;;;;10.64;83.05;98682.22;4882252;28;103454;-75
2024/03/13 12:08:38;;;;;;;5.75;2.58;;;;;;;10.92;82.89;98679.16;4869293;28;103009;-74
2024/03/13 12:11:08;;;;;;;5.18;3.17;;;;;;;10.76;82.91;98680.84;4886490;28;103513;-74
2024/03/13 12:13:37;;;;;;;5.80;3.00;;;;;;;10.71;84.11;98677.06;4900364;28;103194;-74